sensor_id;sensor_type;location;lat;lon;timestamp;P1;durP1;ratioP1;P2;durP2;ratioP2
55362;SDS011;41244;49.242;9.060;2022-12-24T00:00:32;7.20;;;2.30;;
55362;SDS011;41244;49.242;9.060;2022-12-24T00:02:58;5.32;;;2.60;;
55362;SDS011;41244;49.242;9.060;2022-12-24T00:05:24;6.45;;;3.08;;
55362;SDS011;41244;49.242;9.060;2022-12-24T00:07:49;8.50;;;3.10;;
55362;SDS011;41244;49.242;9.060;2022-12-24T00:10:15;6.60;;;2.70;;
55362;SDS011;41244;49.242;9.060;2022-12-24T00:12:41;8.27;;;3.25;;
55362;SDS011;41244;49.242;9.060;2022-12-24T00:15:07;9.60;;;3.60;;
55362;SDS011;41244;49.242;9.060;2022-12-24T00:17:33;10.38;;;2.92;;
55362;SDS011;41244;49.242;9.060;2022-12-24T00:19:59;11.20;;;3.53;;
55362;SDS011;41244;49.242;9.060;2022-12-24T00:22:25;11.48;;;3.55;;
55362;SDS011;41244;49.242;9.060;2022-12-24T00:24:51;7.22;;;3.20;;
55362;SDS011;41244;49.242;9.060;2022-12-24T00:27:16;10.30;;;3.33;;
55362;SDS011;41244;49.242;9.060;2022-12-24T00:29:42;13.70;;;3.55;;
55362;SDS011;41244;49.242;9.060;2022-12-24T00:32:08;9.88;;;3.88;;
55362;SDS011;41244;49.242;9.060;2022-12-24T00:34:37;9.68;;;2.88;;
55362;SDS011;41244;49.242;9.060;2022-12-24T00:37:03;10.30;;;4.35;;
55362;SDS011;41244;49.242;9.060;2022-12-24T00:39:30;9.60;;;2.92;;
55362;SDS011;41244;49.242;9.060;2022-12-24T00:41:56;9.88;;;4.18;;
55362;SDS011;41244;49.242;9.060;2022-12-24T00:44:22;10.48;;;3.30;;
55362;SDS011;41244;49.242;9.060;2022-12-24T00:46:48;12.32;;;3.35;;
55362;SDS011;41244;49.242;9.060;2022-12-24T00:49:13;9.23;;;3.53;;
55362;SDS011;41244;49.242;9.060;2022-12-24T00:51:39;11.07;;;3.40;;
55362;SDS011;41244;49.242;9.060;2022-12-24T00:54:05;7.68;;;3.05;;
55362;SDS011;41244;49.242;9.060;2022-12-24T00:56:32;8.15;;;3.00;;
55362;SDS011;41244;49.242;9.060;2022-12-24T00:58:58;11.75;;;3.78;;
55362;SDS011;41244;49.242;9.060;2022-12-24T01:01:24;12.88;;;3.67;;
55362;SDS011;41244;49.242;9.060;2022-12-24T01:03:50;10.98;;;3.45;;
55362;SDS011;41244;49.242;9.060;2022-12-24T01:06:20;9.13;;;3.42;;
55362;SDS011;41244;49.242;9.060;2022-12-24T01:08:48;11.23;;;3.25;;
55362;SDS011;41244;49.242;9.060;2022-12-24T01:11:15;11.20;;;3.58;;
55362;SDS011;41244;49.242;9.060;2022-12-24T01:13:41;10.98;;;3.83;;
55362;SDS011;41244;49.242;9.060;2022-12-24T01:16:17;14.90;;;3.65;;
55362;SDS011;41244;49.242;9.060;2022-12-24T01:18:44;9.50;;;3.22;;
55362;SDS011;41244;49.242;9.060;2022-12-24T01:21:10;11.45;;;3.47;;
55362;SDS011;41244;49.242;9.060;2022-12-24T01:23:36;11.57;;;3.40;;
55362;SDS011;41244;49.242;9.060;2022-12-24T01:26:02;11.43;;;3.67;;
55362;SDS011;41244;49.242;9.060;2022-12-24T01:28:29;10.85;;;3.70;;
55362;SDS011;41244;49.242;9.060;2022-12-24T01:30:55;11.82;;;3.25;;
55362;SDS011;41244;49.242;9.060;2022-12-24T01:33:21;10.93;;;3.28;;
55362;SDS011;41244;49.242;9.060;2022-12-24T01:35:46;9.07;;;3.22;;
55362;SDS011;41244;49.242;9.060;2022-12-24T01:38:12;11.45;;;3.05;;
55362;SDS011;41244;49.242;9.060;2022-12-24T01:40:39;15.02;;;3.33;;
55362;SDS011;41244;49.242;9.060;2022-12-24T01:43:25;12.55;;;3.05;;
55362;SDS011;41244;49.242;9.060;2022-12-24T01:45:54;12.00;;;3.42;;
55362;SDS011;41244;49.242;9.060;2022-12-24T01:48:37;9.68;;;3.28;;
55362;SDS011;41244;49.242;9.060;2022-12-24T01:53:45;9.05;;;3.20;;
55362;SDS011;41244;49.242;9.060;2022-12-24T01:56:15;13.88;;;3.30;;
55362;SDS011;41244;49.242;9.060;2022-12-24T01:58:42;11.50;;;3.33;;
55362;SDS011;41244;49.242;9.060;2022-12-24T02:01:12;11.20;;;3.67;;
55362;SDS011;41244;49.242;9.060;2022-12-24T02:03:38;7.75;;;2.53;;
55362;SDS011;41244;49.242;9.060;2022-12-24T02:06:04;9.95;;;3.42;;
55362;SDS011;41244;49.242;9.060;2022-12-24T02:08:30;7.10;;;2.90;;
55362;SDS011;41244;49.242;9.060;2022-12-24T02:11:10;11.35;;;3.05;;
55362;SDS011;41244;49.242;9.060;2022-12-24T02:13:53;9.88;;;2.83;;
55362;SDS011;41244;49.242;9.060;2022-12-24T02:23:22;16.13;;;3.70;;
55362;SDS011;41244;49.242;9.060;2022-12-24T02:32:23;12.65;;;3.03;;
55362;SDS011;41244;49.242;9.060;2022-12-24T02:35:19;18.58;;;3.80;;
55362;SDS011;41244;49.242;9.060;2022-12-24T02:38:31;15.73;;;4.57;;
55362;SDS011;41244;49.242;9.060;2022-12-24T02:41:18;11.27;;;3.70;;
55362;SDS011;41244;49.242;9.060;2022-12-24T02:43:48;11.80;;;3.10;;
55362;SDS011;41244;49.242;9.060;2022-12-24T02:46:17;12.88;;;3.72;;
55362;SDS011;41244;49.242;9.060;2022-12-24T02:48:53;13.75;;;3.53;;
55362;SDS011;41244;49.242;9.060;2022-12-24T02:51:23;14.48;;;3.50;;
55362;SDS011;41244;49.242;9.060;2022-12-24T02:53:49;11.88;;;3.63;;
55362;SDS011;41244;49.242;9.060;2022-12-24T03:08:20;13.55;;;4.72;;
55362;SDS011;41244;49.242;9.060;2022-12-24T03:11:09;14.50;;;3.40;;
55362;SDS011;41244;49.242;9.060;2022-12-24T03:13:37;11.30;;;3.97;;
55362;SDS011;41244;49.242;9.060;2022-12-24T03:16:06;12.55;;;3.45;;
55362;SDS011;41244;49.242;9.060;2022-12-24T03:18:37;12.55;;;3.10;;
55362;SDS011;41244;49.242;9.060;2022-12-24T03:21:15;16.50;;;4.15;;
55362;SDS011;41244;49.242;9.060;2022-12-24T03:23:57;11.02;;;3.28;;
55362;SDS011;41244;49.242;9.060;2022-12-24T03:26:23;10.73;;;2.92;;
55362;SDS011;41244;49.242;9.060;2022-12-24T03:28:51;10.25;;;2.80;;
55362;SDS011;41244;49.242;9.060;2022-12-24T03:31:17;12.82;;;3.63;;
55362;SDS011;41244;49.242;9.060;2022-12-24T03:33:43;13.52;;;4.65;;
55362;SDS011;41244;49.242;9.060;2022-12-24T03:36:09;9.15;;;3.60;;
55362;SDS011;41244;49.242;9.060;2022-12-24T03:38:35;18.10;;;4.05;;
55362;SDS011;41244;49.242;9.060;2022-12-24T03:41:01;15.68;;;3.70;;
55362;SDS011;41244;49.242;9.060;2022-12-24T03:43:28;14.15;;;3.40;;
55362;SDS011;41244;49.242;9.060;2022-12-24T03:45:54;14.27;;;3.67;;
55362;SDS011;41244;49.242;9.060;2022-12-24T03:48:19;14.43;;;3.72;;
55362;SDS011;41244;49.242;9.060;2022-12-24T03:50:45;16.23;;;3.55;;
55362;SDS011;41244;49.242;9.060;2022-12-24T03:53:11;15.88;;;4.00;;
55362;SDS011;41244;49.242;9.060;2022-12-24T03:55:37;18.27;;;4.28;;
55362;SDS011;41244;49.242;9.060;2022-12-24T03:58:05;14.48;;;3.72;;
55362;SDS011;41244;49.242;9.060;2022-12-24T04:00:31;14.95;;;4.07;;
55362;SDS011;41244;49.242;9.060;2022-12-24T04:02:56;13.32;;;3.25;;
55362;SDS011;41244;49.242;9.060;2022-12-24T04:05:22;16.70;;;4.05;;
55362;SDS011;41244;49.242;9.060;2022-12-24T04:07:48;16.02;;;4.07;;
55362;SDS011;41244;49.242;9.060;2022-12-24T04:10:14;15.02;;;3.97;;
55362;SDS011;41244;49.242;9.060;2022-12-24T04:12:41;15.20;;;3.58;;
55362;SDS011;41244;49.242;9.060;2022-12-24T04:15:07;21.40;;;6.15;;
55362;SDS011;41244;49.242;9.060;2022-12-24T04:17:33;11.65;;;3.50;;
55362;SDS011;41244;49.242;9.060;2022-12-24T04:19:59;15.50;;;4.70;;
55362;SDS011;41244;49.242;9.060;2022-12-24T04:22:25;14.82;;;4.53;;
55362;SDS011;41244;49.242;9.060;2022-12-24T04:24:50;17.95;;;4.35;;
55362;SDS011;41244;49.242;9.060;2022-12-24T04:27:16;13.13;;;3.90;;
55362;SDS011;41244;49.242;9.060;2022-12-24T04:29:42;16.30;;;3.50;;
55362;SDS011;41244;49.242;9.060;2022-12-24T04:32:08;14.85;;;4.07;;
55362;SDS011;41244;49.242;9.060;2022-12-24T04:34:34;21.35;;;4.90;;
55362;SDS011;41244;49.242;9.060;2022-12-24T04:37:00;23.13;;;5.43;;
55362;SDS011;41244;49.242;9.060;2022-12-24T04:39:26;17.10;;;4.25;;
55362;SDS011;41244;49.242;9.060;2022-12-24T04:41:52;17.70;;;4.65;;
55362;SDS011;41244;49.242;9.060;2022-12-24T04:44:18;16.73;;;3.67;;
55362;SDS011;41244;49.242;9.060;2022-12-24T04:46:44;17.63;;;4.88;;
55362;SDS011;41244;49.242;9.060;2022-12-24T04:49:10;14.13;;;4.40;;
55362;SDS011;41244;49.242;9.060;2022-12-24T04:51:36;17.83;;;4.32;;
55362;SDS011;41244;49.242;9.060;2022-12-24T04:54:02;13.85;;;3.80;;
55362;SDS011;41244;49.242;9.060;2022-12-24T04:56:29;21.02;;;4.55;;
55362;SDS011;41244;49.242;9.060;2022-12-24T04:58:57;17.85;;;4.18;;
55362;SDS011;41244;49.242;9.060;2022-12-24T05:01:25;20.15;;;4.20;;
55362;SDS011;41244;49.242;9.060;2022-12-24T05:03:54;14.52;;;3.90;;
55362;SDS011;41244;49.242;9.060;2022-12-24T05:06:21;17.40;;;4.25;;
55362;SDS011;41244;49.242;9.060;2022-12-24T05:08:52;18.40;;;3.90;;
55362;SDS011;41244;49.242;9.060;2022-12-24T05:11:19;18.85;;;4.50;;
55362;SDS011;41244;49.242;9.060;2022-12-24T05:13:45;21.02;;;4.43;;
55362;SDS011;41244;49.242;9.060;2022-12-24T05:16:11;20.27;;;5.60;;
55362;SDS011;41244;49.242;9.060;2022-12-24T05:18:38;17.52;;;6.53;;
55362;SDS011;41244;49.242;9.060;2022-12-24T05:21:08;18.50;;;5.68;;
55362;SDS011;41244;49.242;9.060;2022-12-24T05:23:38;18.20;;;4.85;;
55362;SDS011;41244;49.242;9.060;2022-12-24T05:28:59;20.83;;;4.85;;
55362;SDS011;41244;49.242;9.060;2022-12-24T05:31:28;21.52;;;7.22;;
55362;SDS011;41244;49.242;9.060;2022-12-24T05:33:55;19.20;;;5.47;;
55362;SDS011;41244;49.242;9.060;2022-12-24T05:36:21;16.92;;;4.20;;
55362;SDS011;41244;49.242;9.060;2022-12-24T05:38:47;19.73;;;4.18;;
55362;SDS011;41244;49.242;9.060;2022-12-24T05:41:13;16.83;;;3.83;;
55362;SDS011;41244;49.242;9.060;2022-12-24T05:43:39;15.07;;;4.68;;
55362;SDS011;41244;49.242;9.060;2022-12-24T05:46:06;24.08;;;5.15;;
55362;SDS011;41244;49.242;9.060;2022-12-24T05:48:35;23.27;;;5.07;;
55362;SDS011;41244;49.242;9.060;2022-12-24T05:51:04;21.58;;;5.80;;
55362;SDS011;41244;49.242;9.060;2022-12-24T05:53:33;13.90;;;4.45;;
55362;SDS011;41244;49.242;9.060;2022-12-24T05:56:03;19.00;;;5.30;;
55362;SDS011;41244;49.242;9.060;2022-12-24T05:58:35;19.40;;;5.63;;
55362;SDS011;41244;49.242;9.060;2022-12-24T06:01:01;18.92;;;4.60;;
55362;SDS011;41244;49.242;9.060;2022-12-24T06:03:29;18.88;;;5.15;;
55362;SDS011;41244;49.242;9.060;2022-12-24T06:05:59;20.27;;;5.18;;
55362;SDS011;41244;49.242;9.060;2022-12-24T06:08:26;21.98;;;4.60;;
55362;SDS011;41244;49.242;9.060;2022-12-24T06:11:00;15.90;;;4.43;;
55362;SDS011;41244;49.242;9.060;2022-12-24T06:13:28;20.08;;;4.55;;
55362;SDS011;41244;49.242;9.060;2022-12-24T06:15:56;18.73;;;4.65;;
55362;SDS011;41244;49.242;9.060;2022-12-24T06:18:22;19.13;;;5.00;;
55362;SDS011;41244;49.242;9.060;2022-12-24T06:20:49;24.00;;;4.72;;
55362;SDS011;41244;49.242;9.060;2022-12-24T06:23:19;19.00;;;4.40;;
55362;SDS011;41244;49.242;9.060;2022-12-24T06:25:46;17.23;;;5.07;;
55362;SDS011;41244;49.242;9.060;2022-12-24T06:28:12;16.63;;;4.20;;
55362;SDS011;41244;49.242;9.060;2022-12-24T06:30:39;20.10;;;4.93;;
55362;SDS011;41244;49.242;9.060;2022-12-24T06:33:05;26.00;;;5.88;;
55362;SDS011;41244;49.242;9.060;2022-12-24T06:35:31;18.08;;;4.85;;
55362;SDS011;41244;49.242;9.060;2022-12-24T06:37:58;16.75;;;4.68;;
55362;SDS011;41244;49.242;9.060;2022-12-24T06:40:27;22.15;;;5.78;;
55362;SDS011;41244;49.242;9.060;2022-12-24T06:42:53;26.02;;;5.25;;
55362;SDS011;41244;49.242;9.060;2022-12-24T06:45:19;17.23;;;4.38;;
55362;SDS011;41244;49.242;9.060;2022-12-24T06:47:44;20.75;;;4.00;;
55362;SDS011;41244;49.242;9.060;2022-12-24T06:50:10;20.45;;;5.43;;
55362;SDS011;41244;49.242;9.060;2022-12-24T06:52:36;20.45;;;4.80;;
55362;SDS011;41244;49.242;9.060;2022-12-24T06:55:02;16.75;;;4.95;;
55362;SDS011;41244;49.242;9.060;2022-12-24T06:57:28;18.80;;;5.10;;
55362;SDS011;41244;49.242;9.060;2022-12-24T06:59:55;27.15;;;4.63;;
55362;SDS011;41244;49.242;9.060;2022-12-24T07:02:22;20.88;;;5.28;;
55362;SDS011;41244;49.242;9.060;2022-12-24T07:04:48;23.73;;;4.13;;
55362;SDS011;41244;49.242;9.060;2022-12-24T07:07:14;20.65;;;4.85;;
55362;SDS011;41244;49.242;9.060;2022-12-24T07:09:40;23.13;;;5.90;;
55362;SDS011;41244;49.242;9.060;2022-12-24T07:12:06;16.10;;;4.30;;
55362;SDS011;41244;49.242;9.060;2022-12-24T07:14:32;29.27;;;6.22;;
55362;SDS011;41244;49.242;9.060;2022-12-24T07:16:58;25.05;;;4.80;;
55362;SDS011;41244;49.242;9.060;2022-12-24T07:19:24;19.35;;;5.10;;
55362;SDS011;41244;49.242;9.060;2022-12-24T07:21:50;25.08;;;5.50;;
55362;SDS011;41244;49.242;9.060;2022-12-24T07:24:15;21.65;;;4.90;;
55362;SDS011;41244;49.242;9.060;2022-12-24T07:26:41;24.63;;;4.85;;
55362;SDS011;41244;49.242;9.060;2022-12-24T07:29:07;24.23;;;4.70;;
55362;SDS011;41244;49.242;9.060;2022-12-24T07:31:33;22.38;;;5.10;;
55362;SDS011;41244;49.242;9.060;2022-12-24T07:33:58;22.42;;;4.85;;
55362;SDS011;41244;49.242;9.060;2022-12-24T07:36:24;18.20;;;4.60;;
55362;SDS011;41244;49.242;9.060;2022-12-24T07:38:52;20.13;;;4.40;;
55362;SDS011;41244;49.242;9.060;2022-12-24T07:41:18;19.50;;;5.50;;
55362;SDS011;41244;49.242;9.060;2022-12-24T07:43:44;22.50;;;4.50;;
55362;SDS011;41244;49.242;9.060;2022-12-24T07:46:10;23.20;;;5.10;;
55362;SDS011;41244;49.242;9.060;2022-12-24T07:48:36;26.33;;;6.20;;
55362;SDS011;41244;49.242;9.060;2022-12-24T07:51:02;22.20;;;5.00;;
55362;SDS011;41244;49.242;9.060;2022-12-24T07:53:28;21.95;;;5.25;;
55362;SDS011;41244;49.242;9.060;2022-12-24T07:55:55;22.02;;;6.25;;
55362;SDS011;41244;49.242;9.060;2022-12-24T07:58:21;18.17;;;5.13;;
55362;SDS011;41244;49.242;9.060;2022-12-24T08:00:47;19.92;;;4.93;;
55362;SDS011;41244;49.242;9.060;2022-12-24T08:03:16;25.30;;;6.38;;
55362;SDS011;41244;49.242;9.060;2022-12-24T08:05:44;22.88;;;5.95;;
55362;SDS011;41244;49.242;9.060;2022-12-24T08:08:10;22.85;;;5.35;;
55362;SDS011;41244;49.242;9.060;2022-12-24T08:10:40;16.95;;;4.82;;
55362;SDS011;41244;49.242;9.060;2022-12-24T08:13:06;20.38;;;4.75;;
55362;SDS011;41244;49.242;9.060;2022-12-24T08:15:33;25.15;;;5.05;;
55362;SDS011;41244;49.242;9.060;2022-12-24T08:17:59;19.88;;;5.60;;
55362;SDS011;41244;49.242;9.060;2022-12-24T08:20:25;18.15;;;5.13;;
55362;SDS011;41244;49.242;9.060;2022-12-24T08:22:51;27.80;;;6.03;;
55362;SDS011;41244;49.242;9.060;2022-12-24T08:25:17;21.48;;;5.43;;
55362;SDS011;41244;49.242;9.060;2022-12-24T08:27:44;23.73;;;5.00;;
55362;SDS011;41244;49.242;9.060;2022-12-24T08:30:10;19.83;;;5.95;;
55362;SDS011;41244;49.242;9.060;2022-12-24T08:32:36;19.00;;;4.53;;
55362;SDS011;41244;49.242;9.060;2022-12-24T08:35:02;22.00;;;5.25;;
55362;SDS011;41244;49.242;9.060;2022-12-24T08:37:28;22.33;;;5.07;;
55362;SDS011;41244;49.242;9.060;2022-12-24T08:39:54;21.02;;;5.00;;
55362;SDS011;41244;49.242;9.060;2022-12-24T08:42:20;21.67;;;5.07;;
55362;SDS011;41244;49.242;9.060;2022-12-24T08:44:46;21.23;;;5.18;;
55362;SDS011;41244;49.242;9.060;2022-12-24T08:47:12;27.25;;;5.22;;
55362;SDS011;41244;49.242;9.060;2022-12-24T08:49:37;24.30;;;5.53;;
55362;SDS011;41244;49.242;9.060;2022-12-24T08:52:04;20.73;;;5.10;;
55362;SDS011;41244;49.242;9.060;2022-12-24T08:54:30;24.52;;;5.60;;
55362;SDS011;41244;49.242;9.060;2022-12-24T08:56:55;17.35;;;4.30;;
55362;SDS011;41244;49.242;9.060;2022-12-24T08:59:21;20.98;;;4.95;;
55362;SDS011;41244;49.242;9.060;2022-12-24T09:01:47;27.45;;;5.97;;
55362;SDS011;41244;49.242;9.060;2022-12-24T09:04:13;21.83;;;5.38;;
55362;SDS011;41244;49.242;9.060;2022-12-24T09:06:38;24.38;;;5.60;;
55362;SDS011;41244;49.242;9.060;2022-12-24T09:09:04;17.88;;;4.82;;
55362;SDS011;41244;49.242;9.060;2022-12-24T09:11:32;17.60;;;4.88;;
55362;SDS011;41244;49.242;9.060;2022-12-24T09:13:59;22.50;;;5.10;;
55362;SDS011;41244;49.242;9.060;2022-12-24T09:16:26;22.08;;;4.75;;
55362;SDS011;41244;49.242;9.060;2022-12-24T09:18:52;22.70;;;4.55;;
55362;SDS011;41244;49.242;9.060;2022-12-24T09:21:18;18.05;;;4.25;;
55362;SDS011;41244;49.242;9.060;2022-12-24T09:23:45;23.40;;;4.97;;
55362;SDS011;41244;49.242;9.060;2022-12-24T09:26:16;21.13;;;5.07;;
55362;SDS011;41244;49.242;9.060;2022-12-24T09:28:45;18.98;;;4.32;;
55362;SDS011;41244;49.242;9.060;2022-12-24T09:31:12;17.52;;;4.68;;
55362;SDS011;41244;49.242;9.060;2022-12-24T09:33:38;26.33;;;4.75;;
55362;SDS011;41244;49.242;9.060;2022-12-24T09:36:06;21.67;;;6.18;;
55362;SDS011;41244;49.242;9.060;2022-12-24T09:38:33;23.17;;;5.63;;
55362;SDS011;41244;49.242;9.060;2022-12-24T09:41:00;21.88;;;4.80;;
55362;SDS011;41244;49.242;9.060;2022-12-24T09:43:36;25.10;;;7.53;;
55362;SDS011;41244;49.242;9.060;2022-12-24T09:48:41;24.80;;;8.65;;
55362;SDS011;41244;49.242;9.060;2022-12-24T09:51:11;22.00;;;5.55;;
55362;SDS011;41244;49.242;9.060;2022-12-24T09:54:02;29.58;;;5.13;;
55362;SDS011;41244;49.242;9.060;2022-12-24T09:56:30;18.83;;;5.25;;
55362;SDS011;41244;49.242;9.060;2022-12-24T09:59:03;25.05;;;5.63;;
55362;SDS011;41244;49.242;9.060;2022-12-24T10:01:31;27.77;;;5.40;;
55362;SDS011;41244;49.242;9.060;2022-12-24T10:04:02;27.00;;;5.22;;
55362;SDS011;41244;49.242;9.060;2022-12-24T10:24:05;20.23;;;4.60;;
55362;SDS011;41244;49.242;9.060;2022-12-24T10:26:58;15.68;;;4.07;;
55362;SDS011;41244;49.242;9.060;2022-12-24T10:29:29;35.22;;;7.93;;
55362;SDS011;41244;49.242;9.060;2022-12-24T10:34:40;24.98;;;5.25;;
55362;SDS011;41244;49.242;9.060;2022-12-24T10:37:13;21.50;;;5.43;;
55362;SDS011;41244;49.242;9.060;2022-12-24T10:39:42;16.35;;;6.10;;
55362;SDS011;41244;49.242;9.060;2022-12-24T10:42:08;23.33;;;6.03;;
55362;SDS011;41244;49.242;9.060;2022-12-24T10:44:34;20.63;;;4.22;;
55362;SDS011;41244;49.242;9.060;2022-12-24T10:47:00;20.42;;;5.07;;
55362;SDS011;41244;49.242;9.060;2022-12-24T10:52:13;21.42;;;5.30;;
55362;SDS011;41244;49.242;9.060;2022-12-24T10:55:04;18.30;;;4.30;;
55362;SDS011;41244;49.242;9.060;2022-12-24T10:57:43;16.88;;;4.28;;
55362;SDS011;41244;49.242;9.060;2022-12-24T11:00:20;22.45;;;4.63;;
55362;SDS011;41244;49.242;9.060;2022-12-24T11:02:48;13.05;;;3.95;;
55362;SDS011;41244;49.242;9.060;2022-12-24T11:05:36;19.63;;;6.00;;
55362;SDS011;41244;49.242;9.060;2022-12-24T11:08:04;14.77;;;4.97;;
55362;SDS011;41244;49.242;9.060;2022-12-24T11:13:05;16.17;;;4.15;;
55362;SDS011;41244;49.242;9.060;2022-12-24T11:16:00;14.68;;;4.80;;
55362;SDS011;41244;49.242;9.060;2022-12-24T11:18:31;11.70;;;4.43;;
55362;SDS011;41244;49.242;9.060;2022-12-24T11:20:59;14.15;;;4.82;;
55362;SDS011;41244;49.242;9.060;2022-12-24T11:23:25;14.55;;;4.10;;
55362;SDS011;41244;49.242;9.060;2022-12-24T11:25:53;14.70;;;4.70;;
55362;SDS011;41244;49.242;9.060;2022-12-24T11:28:24;15.05;;;4.53;;
55362;SDS011;41244;49.242;9.060;2022-12-24T11:31:04;15.80;;;3.97;;
55362;SDS011;41244;49.242;9.060;2022-12-24T11:33:49;14.90;;;4.38;;
55362;SDS011;41244;49.242;9.060;2022-12-24T11:36:22;13.90;;;4.20;;
55362;SDS011;41244;49.242;9.060;2022-12-24T11:38:52;18.13;;;4.18;;
55362;SDS011;41244;49.242;9.060;2022-12-24T11:41:20;16.65;;;4.70;;
55362;SDS011;41244;49.242;9.060;2022-12-24T11:43:47;18.05;;;5.60;;
55362;SDS011;41244;49.242;9.060;2022-12-24T11:48:42;22.60;;;5.63;;
55362;SDS011;41244;49.242;9.060;2022-12-24T11:51:20;15.13;;;4.43;;
55362;SDS011;41244;49.242;9.060;2022-12-24T11:56:42;16.10;;;4.78;;
55362;SDS011;41244;49.242;9.060;2022-12-24T12:02:51;22.15;;;4.78;;
55362;SDS011;41244;49.242;9.060;2022-12-24T12:05:07;18.10;;;3.85;;
55362;SDS011;41244;49.242;9.060;2022-12-24T12:07:37;16.83;;;4.85;;
55362;SDS011;41244;49.242;9.060;2022-12-24T12:12:35;20.00;;;4.65;;
55362;SDS011;41244;49.242;9.060;2022-12-24T12:15:19;16.42;;;4.32;;
55362;SDS011;41244;49.242;9.060;2022-12-24T12:17:50;18.35;;;4.88;;
55362;SDS011;41244;49.242;9.060;2022-12-24T12:28:48;19.85;;;4.78;;
55362;SDS011;41244;49.242;9.060;2022-12-24T12:31:35;22.38;;;5.35;;
55362;SDS011;41244;49.242;9.060;2022-12-24T12:34:16;18.67;;;5.20;;
55362;SDS011;41244;49.242;9.060;2022-12-24T12:39:15;20.23;;;4.60;;
55362;SDS011;41244;49.242;9.060;2022-12-24T12:47:19;18.38;;;5.15;;
55362;SDS011;41244;49.242;9.060;2022-12-24T12:50:21;19.98;;;4.75;;
55362;SDS011;41244;49.242;9.060;2022-12-24T12:59:14;14.07;;;4.05;;
55362;SDS011;41244;49.242;9.060;2022-12-24T13:02:14;18.67;;;4.70;;
55362;SDS011;41244;49.242;9.060;2022-12-24T13:11:11;16.30;;;4.68;;
55362;SDS011;41244;49.242;9.060;2022-12-24T13:14:21;19.55;;;5.10;;
55362;SDS011;41244;49.242;9.060;2022-12-24T13:22:36;22.23;;;5.00;;
55362;SDS011;41244;49.242;9.060;2022-12-24T13:25:02;16.30;;;4.78;;
55362;SDS011;41244;49.242;9.060;2022-12-24T13:27:29;17.88;;;4.45;;
55362;SDS011;41244;49.242;9.060;2022-12-24T13:30:00;18.20;;;4.45;;
55362;SDS011;41244;49.242;9.060;2022-12-24T13:32:57;15.57;;;4.60;;
55362;SDS011;41244;49.242;9.060;2022-12-24T13:35:27;20.60;;;5.95;;
55362;SDS011;41244;49.242;9.060;2022-12-24T13:38:28;21.35;;;4.82;;
55362;SDS011;41244;49.242;9.060;2022-12-24T13:40:51;27.92;;;4.82;;
55362;SDS011;41244;49.242;9.060;2022-12-24T13:43:17;18.90;;;5.00;;
55362;SDS011;41244;49.242;9.060;2022-12-24T13:45:44;18.52;;;5.38;;
55362;SDS011;41244;49.242;9.060;2022-12-24T13:48:16;37.78;;;16.67;;
55362;SDS011;41244;49.242;9.060;2022-12-24T13:50:54;19.80;;;4.60;;
55362;SDS011;41244;49.242;9.060;2022-12-24T13:58:37;21.02;;;7.03;;
55362;SDS011;41244;49.242;9.060;2022-12-24T14:01:20;21.33;;;6.17;;
55362;SDS011;41244;49.242;9.060;2022-12-24T14:03:57;25.33;;;5.15;;
55362;SDS011;41244;49.242;9.060;2022-12-24T14:06:31;23.10;;;5.57;;
55362;SDS011;41244;49.242;9.060;2022-12-24T14:14:28;23.10;;;6.38;;
55362;SDS011;41244;49.242;9.060;2022-12-24T14:19:43;19.23;;;5.25;;
55362;SDS011;41244;49.242;9.060;2022-12-24T14:25:02;20.55;;;6.80;;
55362;SDS011;41244;49.242;9.060;2022-12-24T14:27:43;20.60;;;6.53;;
55362;SDS011;41244;49.242;9.060;2022-12-24T14:30:27;22.90;;;6.15;;
55362;SDS011;41244;49.242;9.060;2022-12-24T14:32:54;29.55;;;9.40;;
55362;SDS011;41244;49.242;9.060;2022-12-24T14:35:23;28.85;;;8.25;;
55362;SDS011;41244;49.242;9.060;2022-12-24T14:40:28;18.02;;;6.13;;
55362;SDS011;41244;49.242;9.060;2022-12-24T14:43:00;19.08;;;6.50;;
55362;SDS011;41244;49.242;9.060;2022-12-24T14:46:29;16.52;;;6.20;;
55362;SDS011;41244;49.242;9.060;2022-12-24T15:00:24;17.70;;;5.68;;
55362;SDS011;41244;49.242;9.060;2022-12-24T15:02:50;16.58;;;5.25;;
55362;SDS011;41244;49.242;9.060;2022-12-24T15:05:17;18.13;;;4.97;;
55362;SDS011;41244;49.242;9.060;2022-12-24T15:07:52;14.77;;;4.93;;
55362;SDS011;41244;49.242;9.060;2022-12-24T15:10:28;16.48;;;4.60;;
55362;SDS011;41244;49.242;9.060;2022-12-24T15:13:06;16.58;;;4.93;;
55362;SDS011;41244;49.242;9.060;2022-12-24T15:15:46;20.50;;;5.95;;
55362;SDS011;41244;49.242;9.060;2022-12-24T15:18:14;17.08;;;5.38;;
55362;SDS011;41244;49.242;9.060;2022-12-24T15:20:45;21.45;;;5.57;;
55362;SDS011;41244;49.242;9.060;2022-12-24T15:23:21;18.65;;;5.65;;
55362;SDS011;41244;49.242;9.060;2022-12-24T15:26:13;19.85;;;4.70;;
55362;SDS011;41244;49.242;9.060;2022-12-24T15:28:46;16.15;;;4.45;;
55362;SDS011;41244;49.242;9.060;2022-12-24T15:31:22;18.75;;;4.22;;
55362;SDS011;41244;49.242;9.060;2022-12-24T15:33:50;18.92;;;4.68;;
55362;SDS011;41244;49.242;9.060;2022-12-24T15:36:23;15.23;;;4.78;;
55362;SDS011;41244;49.242;9.060;2022-12-24T15:39:12;18.33;;;5.70;;
55362;SDS011;41244;49.242;9.060;2022-12-24T15:41:39;16.25;;;4.32;;
55362;SDS011;41244;49.242;9.060;2022-12-24T15:44:27;14.50;;;4.40;;
55362;SDS011;41244;49.242;9.060;2022-12-24T15:47:01;17.23;;;4.57;;
55362;SDS011;41244;49.242;9.060;2022-12-24T15:49:29;15.65;;;4.85;;
55362;SDS011;41244;49.242;9.060;2022-12-24T15:52:12;13.50;;;4.88;;
55362;SDS011;41244;49.242;9.060;2022-12-24T15:54:44;19.45;;;5.53;;
55362;SDS011;41244;49.242;9.060;2022-12-24T15:57:31;26.42;;;11.45;;
55362;SDS011;41244;49.242;9.060;2022-12-24T15:59:58;15.48;;;5.25;;
55362;SDS011;41244;49.242;9.060;2022-12-24T16:02:34;17.00;;;4.65;;
55362;SDS011;41244;49.242;9.060;2022-12-24T16:10:50;15.50;;;5.50;;
55362;SDS011;41244;49.242;9.060;2022-12-24T16:13:36;24.38;;;9.20;;
55362;SDS011;41244;49.242;9.060;2022-12-24T16:16:07;34.55;;;15.15;;
55362;SDS011;41244;49.242;9.060;2022-12-24T16:21:57;43.65;;;22.25;;
55362;SDS011;41244;49.242;9.060;2022-12-24T16:24:21;47.15;;;20.30;;
55362;SDS011;41244;49.242;9.060;2022-12-24T16:29:25;32.08;;;11.65;;
55362;SDS011;41244;49.242;9.060;2022-12-24T16:31:52;19.15;;;8.93;;
55362;SDS011;41244;49.242;9.060;2022-12-24T16:34:23;16.77;;;6.63;;
55362;SDS011;41244;49.242;9.060;2022-12-24T16:36:51;18.98;;;6.95;;
55362;SDS011;41244;49.242;9.060;2022-12-24T16:39:19;23.50;;;7.55;;
55362;SDS011;41244;49.242;9.060;2022-12-24T16:42:03;22.58;;;7.40;;
55362;SDS011;41244;49.242;9.060;2022-12-24T16:44:48;16.75;;;6.60;;
55362;SDS011;41244;49.242;9.060;2022-12-24T16:47:19;17.17;;;6.05;;
55362;SDS011;41244;49.242;9.060;2022-12-24T16:49:48;19.15;;;5.28;;
55362;SDS011;41244;49.242;9.060;2022-12-24T16:52:18;22.83;;;10.68;;
55362;SDS011;41244;49.242;9.060;2022-12-24T16:54:51;16.65;;;6.13;;
55362;SDS011;41244;49.242;9.060;2022-12-24T16:57:17;30.20;;;13.32;;
55362;SDS011;41244;49.242;9.060;2022-12-24T16:59:43;24.52;;;10.68;;
55362;SDS011;41244;49.242;9.060;2022-12-24T17:02:10;30.70;;;15.13;;
55362;SDS011;41244;49.242;9.060;2022-12-24T17:04:38;33.53;;;15.82;;
55362;SDS011;41244;49.242;9.060;2022-12-24T17:07:04;42.55;;;20.45;;
55362;SDS011;41244;49.242;9.060;2022-12-24T17:09:31;37.10;;;17.13;;
55362;SDS011;41244;49.242;9.060;2022-12-24T17:11:56;37.10;;;18.35;;
55362;SDS011;41244;49.242;9.060;2022-12-24T17:14:22;28.10;;;14.82;;
55362;SDS011;41244;49.242;9.060;2022-12-24T17:16:48;21.10;;;10.98;;
55362;SDS011;41244;49.242;9.060;2022-12-24T17:19:14;19.15;;;11.55;;